This is the latest recevied weather packets stored in our database for station/object OE-11053. If no packets are shown the sender has not sent any weather packets the latest 10 day(s).
| Time | Temp. | Humidity | Pressure | Rain* | Wind** | Luminosity | Snow |
|---|---|---|---|---|---|---|---|
| 1788018096 | 24.44° C | 45% | 1014.5 hPa | 0 mm | - | 269 W/m² | - |
| 1788017723 | 23.89° C | 47% | 1014.7 hPa | 0 mm | - | 217 W/m² | - |
| 1788017123 | 24.44° C | 45% | 1014.6 hPa | 0 mm | - | 396 W/m² | - |
| 1788016296 | 24.44° C | 45% | 1014.6 hPa | 0 mm | - | 428 W/m² | - |
| 1788015923 | 24.44° C | 45% | 1014.7 hPa | 0 mm | - | 448 W/m² | - |
| 1788015323 | 24.44° C | 45% | 1014.7 hPa | 0 mm | - | 467 W/m² | - |
| 1788014496 | 23.89° C | 44% | 1014.8 hPa | 0 mm | - | 505 W/m² | - |
| 1788014123 | 23.89° C | 44% | 1014.9 hPa | 0 mm | - | 505 W/m² | - |
| 1788013522 | 23.89° C | 44% | 1014.9 hPa | 0 mm | - | 556 W/m² | - |
| 1788012696 | 23.89° C | 44% | 1015 hPa | 0 mm | - | 575 W/m² | - |
| 1788012323 | 24.44° C | 47% | 1015.2 hPa | 0 mm | - | 601 W/m² | - |
| 1788011723 | 23.89° C | 46% | 1015.2 hPa | 0 mm | - | 639 W/m² | - |
| 1788010896 | 23.89° C | 47% | 1015.4 hPa | 0 mm | - | 652 W/m² | - |
| 1788010523 | 23.89° C | 47% | 1015.5 hPa | 0 mm | - | 671 W/m² | - |
| 1788009922 | 23.89° C | 48% | 1015.6 hPa | 0 mm | - | 639 W/m² | - |
| 1788009095 | 22.78° C | 50% | 1015.9 hPa | 0 mm | - | 473 W/m² | - |
| 1788008723 | 23.33° C | 49% | 1015.8 hPa | 0 mm | - | 710 W/m² | - |
| 1788008123 | 23.33° C | 49% | 1015.8 hPa | 0 mm | - | 729 W/m² | - |
| 1788007296 | 22.78° C | 50% | 1016.1 hPa | 0 mm | - | 691 W/m² | - |
| 1788006923 | 23.33° C | 52% | 1016.1 hPa | 0 mm | - | 780 W/m² | - |
| 1788006323 | 22.78° C | 51% | 1016.1 hPa | 0 mm | - | 716 W/m² | - |
| 1788005495 | 22.78° C | 53% | 1016.2 hPa | 0 mm | - | 780 W/m² | - |
| 1788005123 | 22.22° C | 54% | 1016.4 hPa | 0 mm | - | 793 W/m² | - |
| 1788004523 | 22.22° C | 53% | 1016.4 hPa | 0 mm | - | 799 W/m² | - |
| 1788003696 | 22.22° C | 55% | 1016.6 hPa | 0 mm | - | 786 W/m² | - |
* Rain latest hour (hover to see other rain measurements)
** Current wind speed in m/s (hover to see current wind gust speed)